sensor_id;sensor_type;location;lat;lon;timestamp;temperature;humidity
20712;DHT22;10517;50.742;4.224;2023-03-01T00:01:23;0.50;99.90
20712;DHT22;10517;50.742;4.224;2023-03-01T00:03:50;0.50;99.90
20712;DHT22;10517;50.742;4.224;2023-03-01T00:06:16;0.50;99.90
20712;DHT22;10517;50.742;4.224;2023-03-01T00:08:42;0.40;99.90
20712;DHT22;10517;50.742;4.224;2023-03-01T00:11:14;0.30;99.90
20712;DHT22;10517;50.742;4.224;2023-03-01T00:13:41;0.30;99.90
20712;DHT22;10517;50.742;4.224;2023-03-01T00:16:09;0.30;99.90
20712;DHT22;10517;50.742;4.224;2023-03-01T00:18:36;0.30;99.90
20712;DHT22;10517;50.742;4.224;2023-03-01T00:21:01;0.30;99.90
20712;DHT22;10517;50.742;4.224;2023-03-01T00:23:27;0.30;99.90
20712;DHT22;10517;50.742;4.224;2023-03-01T00:25:53;0.20;99.90
20712;DHT22;10517;50.742;4.224;2023-03-01T00:28:19;0.30;99.90
20712;DHT22;10517;50.742;4.224;2023-03-01T00:30:45;0.30;99.90
20712;DHT22;10517;50.742;4.224;2023-03-01T00:33:10;0.30;99.90
20712;DHT22;10517;50.742;4.224;2023-03-01T00:35:36;0.30;99.90
20712;DHT22;10517;50.742;4.224;2023-03-01T00:38:02;0.30;99.90
20712;DHT22;10517;50.742;4.224;2023-03-01T00:40:29;0.20;99.90
20712;DHT22;10517;50.742;4.224;2023-03-01T00:42:55;0.20;99.90
20712;DHT22;10517;50.742;4.224;2023-03-01T00:45:21;0.30;99.90
20712;DHT22;10517;50.742;4.224;2023-03-01T00:47:48;0.30;99.90
20712;DHT22;10517;50.742;4.224;2023-03-01T00:50:14;0.10;99.90
20712;DHT22;10517;50.742;4.224;2023-03-01T00:52:40;0.10;99.90
20712;DHT22;10517;50.742;4.224;2023-03-01T00:55:06;0.10;99.90
20712;DHT22;10517;50.742;4.224;2023-03-01T00:57:32;0.20;99.90
20712;DHT22;10517;50.742;4.224;2023-03-01T00:59:57;0.10;99.90
20712;DHT22;10517;50.742;4.224;2023-03-01T01:02:23;0.00;99.90
20712;DHT22;10517;50.742;4.224;2023-03-01T01:04:49;0.10;99.90
20712;DHT22;10517;50.742;4.224;2023-03-01T01:07:15;0.20;99.90
20712;DHT22;10517;50.742;4.224;2023-03-01T01:09:41;0.20;99.90
20712;DHT22;10517;50.742;4.224;2023-03-01T01:12:06;0.00;99.90
20712;DHT22;10517;50.742;4.224;2023-03-01T01:14:32;0.00;99.90
20712;DHT22;10517;50.742;4.224;2023-03-01T01:16:58;-0.10;99.90
20712;DHT22;10517;50.742;4.224;2023-03-01T01:19:25;-0.10;99.90
20712;DHT22;10517;50.742;4.224;2023-03-01T01:21:51;-0.10;99.90
20712;DHT22;10517;50.742;4.224;2023-03-01T01:24:17;-0.10;99.90
20712;DHT22;10517;50.742;4.224;2023-03-01T01:26:43;-0.10;99.90
20712;DHT22;10517;50.742;4.224;2023-03-01T01:29:09;-0.10;99.90
20712;DHT22;10517;50.742;4.224;2023-03-01T01:31:37;0.00;99.90
20712;DHT22;10517;50.742;4.224;2023-03-01T01:34:04;0.00;99.90
20712;DHT22;10517;50.742;4.224;2023-03-01T01:36:30;-0.10;99.90
20712;DHT22;10517;50.742;4.224;2023-03-01T01:38:56;-0.10;99.90
20712;DHT22;10517;50.742;4.224;2023-03-01T01:41:23;-0.10;99.90
20712;DHT22;10517;50.742;4.224;2023-03-01T01:44:22;-0.20;99.90
20712;DHT22;10517;50.742;4.224;2023-03-01T01:49:38;-0.30;99.90
20712;DHT22;10517;50.742;4.224;2023-03-01T01:57:09;-0.30;99.90
20712;DHT22;10517;50.742;4.224;2023-03-01T01:59:37;-0.30;99.90
20712;DHT22;10517;50.742;4.224;2023-03-01T02:02:03;-0.40;99.90
20712;DHT22;10517;50.742;4.224;2023-03-01T02:04:31;-0.40;99.90
20712;DHT22;10517;50.742;4.224;2023-03-01T02:07:19;-0.50;99.90
20712;DHT22;10517;50.742;4.224;2023-03-01T02:09:47;-0.40;99.90
20712;DHT22;10517;50.742;4.224;2023-03-01T02:12:19;-0.40;99.90
20712;DHT22;10517;50.742;4.224;2023-03-01T02:14:45;-0.40;99.90
20712;DHT22;10517;50.742;4.224;2023-03-01T02:17:12;-0.40;99.90
20712;DHT22;10517;50.742;4.224;2023-03-01T02:22:30;-0.50;99.90
20712;DHT22;10517;50.742;4.224;2023-03-01T02:25:12;-0.50;99.90
20712;DHT22;10517;50.742;4.224;2023-03-01T02:30:50;-0.50;99.90
20712;DHT22;10517;50.742;4.224;2023-03-01T02:33:36;-0.50;99.90
20712;DHT22;10517;50.742;4.224;2023-03-01T02:36:28;-0.50;99.90
20712;DHT22;10517;50.742;4.224;2023-03-01T02:38:58;-0.60;99.90
20712;DHT22;10517;50.742;4.224;2023-03-01T02:41:25;-0.50;99.90
20712;DHT22;10517;50.742;4.224;2023-03-01T02:43:51;-0.50;99.90
20712;DHT22;10517;50.742;4.224;2023-03-01T02:46:20;-0.60;99.90
20712;DHT22;10517;50.742;4.224;2023-03-01T02:48:50;-0.60;99.90
20712;DHT22;10517;50.742;4.224;2023-03-01T02:51:26;-0.60;99.90
20712;DHT22;10517;50.742;4.224;2023-03-01T02:54:23;-0.70;99.90
20712;DHT22;10517;50.742;4.224;2023-03-01T02:56:51;-0.60;99.90
20712;DHT22;10517;50.742;4.224;2023-03-01T02:59:20;-0.60;99.90
20712;DHT22;10517;50.742;4.224;2023-03-01T03:01:46;-0.60;99.90
20712;DHT22;10517;50.742;4.224;2023-03-01T03:04:15;-0.70;99.90
20712;DHT22;10517;50.742;4.224;2023-03-01T03:06:46;-0.70;99.90
20712;DHT22;10517;50.742;4.224;2023-03-01T03:09:13;-0.70;99.90
20712;DHT22;10517;50.742;4.224;2023-03-01T03:11:39;-0.80;99.90
20712;DHT22;10517;50.742;4.224;2023-03-01T03:14:07;-0.80;99.90
20712;DHT22;10517;50.742;4.224;2023-03-01T03:16:47;-0.70;99.90
20712;DHT22;10517;50.742;4.224;2023-03-01T03:19:13;-0.80;99.90
20712;DHT22;10517;50.742;4.224;2023-03-01T03:21:38;-0.80;99.90
20712;DHT22;10517;50.742;4.224;2023-03-01T03:24:04;-0.70;99.90
20712;DHT22;10517;50.742;4.224;2023-03-01T03:26:31;-0.80;99.90
20712;DHT22;10517;50.742;4.224;2023-03-01T03:28:57;-0.80;99.90
20712;DHT22;10517;50.742;4.224;2023-03-01T03:31:22;-0.90;99.90
20712;DHT22;10517;50.742;4.224;2023-03-01T03:33:48;-0.90;99.90
20712;DHT22;10517;50.742;4.224;2023-03-01T03:36:18;-0.80;99.90
20712;DHT22;10517;50.742;4.224;2023-03-01T03:38:44;-0.80;99.90
20712;DHT22;10517;50.742;4.224;2023-03-01T03:41:14;-0.90;99.90
20712;DHT22;10517;50.742;4.224;2023-03-01T03:43:40;-1.00;99.90
20712;DHT22;10517;50.742;4.224;2023-03-01T03:46:08;-1.00;99.90
20712;DHT22;10517;50.742;4.224;2023-03-01T03:48:43;-1.00;99.90
20712;DHT22;10517;50.742;4.224;2023-03-01T03:51:17;-1.00;99.90
20712;DHT22;10517;50.742;4.224;2023-03-01T03:53:43;-1.10;99.90
20712;DHT22;10517;50.742;4.224;2023-03-01T03:56:09;-1.10;99.90
20712;DHT22;10517;50.742;4.224;2023-03-01T03:58:35;-1.10;99.90
20712;DHT22;10517;50.742;4.224;2023-03-01T04:01:00;-1.20;99.90
20712;DHT22;10517;50.742;4.224;2023-03-01T04:03:28;-1.10;99.90
20712;DHT22;10517;50.742;4.224;2023-03-01T04:05:54;-1.10;99.90
20712;DHT22;10517;50.742;4.224;2023-03-01T04:08:21;-1.10;99.90
20712;DHT22;10517;50.742;4.224;2023-03-01T04:10:49;-1.10;99.90
20712;DHT22;10517;50.742;4.224;2023-03-01T04:13:18;-1.10;99.90
20712;DHT22;10517;50.742;4.224;2023-03-01T04:15:46;-1.20;99.90
20712;DHT22;10517;50.742;4.224;2023-03-01T04:18:14;-1.20;99.90
20712;DHT22;10517;50.742;4.224;2023-03-01T04:20:40;-1.20;99.90
20712;DHT22;10517;50.742;4.224;2023-03-01T04:23:08;-1.20;99.90
20712;DHT22;10517;50.742;4.224;2023-03-01T04:28:29;-1.20;99.90
20712;DHT22;10517;50.742;4.224;2023-03-01T04:30:58;-1.30;99.90
20712;DHT22;10517;50.742;4.224;2023-03-01T04:33:27;-1.30;99.90
20712;DHT22;10517;50.742;4.224;2023-03-01T04:35:52;-1.30;99.90
20712;DHT22;10517;50.742;4.224;2023-03-01T04:38:19;-1.40;99.90
20712;DHT22;10517;50.742;4.224;2023-03-01T04:40:45;-1.40;99.90
20712;DHT22;10517;50.742;4.224;2023-03-01T04:43:11;-1.50;99.90
20712;DHT22;10517;50.742;4.224;2023-03-01T04:45:38;-1.50;99.90
20712;DHT22;10517;50.742;4.224;2023-03-01T04:48:04;-1.40;99.90
20712;DHT22;10517;50.742;4.224;2023-03-01T04:50:30;-1.40;99.90
20712;DHT22;10517;50.742;4.224;2023-03-01T04:52:56;-1.50;99.90
20712;DHT22;10517;50.742;4.224;2023-03-01T04:55:27;-1.60;99.90
20712;DHT22;10517;50.742;4.224;2023-03-01T04:57:54;-1.60;99.90
20712;DHT22;10517;50.742;4.224;2023-03-01T05:00:20;-1.60;99.90
20712;DHT22;10517;50.742;4.224;2023-03-01T05:02:59;-1.60;99.90
20712;DHT22;10517;50.742;4.224;2023-03-01T05:05:32;-1.70;99.90
20712;DHT22;10517;50.742;4.224;2023-03-01T05:08:01;-1.60;99.90
20712;DHT22;10517;50.742;4.224;2023-03-01T05:10:29;-1.60;99.90
20712;DHT22;10517;50.742;4.224;2023-03-01T05:12:56;-1.60;99.90
20712;DHT22;10517;50.742;4.224;2023-03-01T05:15:23;-1.60;99.90
20712;DHT22;10517;50.742;4.224;2023-03-01T05:17:51;-1.70;99.90
20712;DHT22;10517;50.742;4.224;2023-03-01T05:20:17;-1.60;99.90
20712;DHT22;10517;50.742;4.224;2023-03-01T05:22:42;-1.60;99.90
20712;DHT22;10517;50.742;4.224;2023-03-01T05:25:08;-1.60;99.90
20712;DHT22;10517;50.742;4.224;2023-03-01T05:27:34;-1.60;99.90
20712;DHT22;10517;50.742;4.224;2023-03-01T05:30:00;-1.60;99.90
20712;DHT22;10517;50.742;4.224;2023-03-01T05:32:39;-1.70;99.90
20712;DHT22;10517;50.742;4.224;2023-03-01T05:35:05;-1.70;99.90
20712;DHT22;10517;50.742;4.224;2023-03-01T05:37:31;-1.70;99.90
20712;DHT22;10517;50.742;4.224;2023-03-01T05:39:56;-1.80;99.90
20712;DHT22;10517;50.742;4.224;2023-03-01T05:42:22;-1.80;99.90
20712;DHT22;10517;50.742;4.224;2023-03-01T05:44:48;-1.80;99.90
20712;DHT22;10517;50.742;4.224;2023-03-01T05:47:13;-1.80;99.90
20712;DHT22;10517;50.742;4.224;2023-03-01T05:49:39;-1.80;99.90
20712;DHT22;10517;50.742;4.224;2023-03-01T05:52:04;-1.80;99.90
20712;DHT22;10517;50.742;4.224;2023-03-01T05:54:30;-1.90;99.90
20712;DHT22;10517;50.742;4.224;2023-03-01T05:56:56;-1.80;99.90
20712;DHT22;10517;50.742;4.224;2023-03-01T05:59:21;-1.90;99.90
20712;DHT22;10517;50.742;4.224;2023-03-01T06:01:47;-1.90;99.90
20712;DHT22;10517;50.742;4.224;2023-03-01T06:04:12;-1.90;99.90
20712;DHT22;10517;50.742;4.224;2023-03-01T06:06:38;-1.90;99.90
20712;DHT22;10517;50.742;4.224;2023-03-01T06:09:05;-1.90;99.90
20712;DHT22;10517;50.742;4.224;2023-03-01T06:11:34;-1.90;99.90
20712;DHT22;10517;50.742;4.224;2023-03-01T06:13:59;-2.00;99.90
20712;DHT22;10517;50.742;4.224;2023-03-01T06:16:25;-2.00;99.90
20712;DHT22;10517;50.742;4.224;2023-03-01T06:18:50;-2.00;99.90
20712;DHT22;10517;50.742;4.224;2023-03-01T06:21:16;-2.00;99.90
20712;DHT22;10517;50.742;4.224;2023-03-01T06:23:42;-2.00;99.90
20712;DHT22;10517;50.742;4.224;2023-03-01T06:26:08;-2.00;99.90
20712;DHT22;10517;50.742;4.224;2023-03-01T06:28:35;-2.00;99.90
20712;DHT22;10517;50.742;4.224;2023-03-01T06:31:01;-2.00;99.90
20712;DHT22;10517;50.742;4.224;2023-03-01T06:33:26;-1.90;99.90
20712;DHT22;10517;50.742;4.224;2023-03-01T06:35:54;-1.90;99.90
20712;DHT22;10517;50.742;4.224;2023-03-01T06:38:21;-2.00;99.90
20712;DHT22;10517;50.742;4.224;2023-03-01T06:40:52;-2.00;99.90
20712;DHT22;10517;50.742;4.224;2023-03-01T06:43:19;-2.00;99.90
20712;DHT22;10517;50.742;4.224;2023-03-01T06:45:45;-2.00;99.90
20712;DHT22;10517;50.742;4.224;2023-03-01T06:48:11;-2.00;99.90
20712;DHT22;10517;50.742;4.224;2023-03-01T06:50:37;-1.90;99.90
20712;DHT22;10517;50.742;4.224;2023-03-01T06:53:03;-1.90;99.90
20712;DHT22;10517;50.742;4.224;2023-03-01T06:55:29;-1.90;99.90
20712;DHT22;10517;50.742;4.224;2023-03-01T06:57:56;-1.90;99.90
20712;DHT22;10517;50.742;4.224;2023-03-01T07:00:22;-1.80;99.90
20712;DHT22;10517;50.742;4.224;2023-03-01T07:02:48;-1.90;99.90
20712;DHT22;10517;50.742;4.224;2023-03-01T07:05:13;-1.80;99.90
20712;DHT22;10517;50.742;4.224;2023-03-01T07:07:39;-1.80;99.90
20712;DHT22;10517;50.742;4.224;2023-03-01T07:10:05;-1.70;99.90
20712;DHT22;10517;50.742;4.224;2023-03-01T07:12:31;-1.60;99.90
20712;DHT22;10517;50.742;4.224;2023-03-01T07:14:56;-1.50;99.90
20712;DHT22;10517;50.742;4.224;2023-03-01T07:17:22;-1.50;99.90
20712;DHT22;10517;50.742;4.224;2023-03-01T07:19:47;-1.40;99.90
20712;DHT22;10517;50.742;4.224;2023-03-01T07:22:13;-1.40;99.90
20712;DHT22;10517;50.742;4.224;2023-03-01T07:24:40;-1.30;99.90
20712;DHT22;10517;50.742;4.224;2023-03-01T07:27:05;-1.30;99.90
20712;DHT22;10517;50.742;4.224;2023-03-01T07:29:31;-1.10;99.90
20712;DHT22;10517;50.742;4.224;2023-03-01T07:31:57;-1.10;99.90
20712;DHT22;10517;50.742;4.224;2023-03-01T07:34:22;-0.90;99.90
20712;DHT22;10517;50.742;4.224;2023-03-01T07:36:48;-0.70;99.90
20712;DHT22;10517;50.742;4.224;2023-03-01T07:39:14;-0.60;99.90
20712;DHT22;10517;50.742;4.224;2023-03-01T07:41:39;-0.50;99.90
20712;DHT22;10517;50.742;4.224;2023-03-01T07:44:05;-0.50;99.90
20712;DHT22;10517;50.742;4.224;2023-03-01T07:46:30;-0.40;99.90
20712;DHT22;10517;50.742;4.224;2023-03-01T07:48:56;-0.30;99.90
20712;DHT22;10517;50.742;4.224;2023-03-01T07:51:23;-0.30;99.90
20712;DHT22;10517;50.742;4.224;2023-03-01T07:53:48;-0.30;99.90
20712;DHT22;10517;50.742;4.224;2023-03-01T07:56:15;-0.20;99.90
20712;DHT22;10517;50.742;4.224;2023-03-01T07:58:44;-0.10;99.90
20712;DHT22;10517;50.742;4.224;2023-03-01T08:01:12;0.00;99.90
20712;DHT22;10517;50.742;4.224;2023-03-01T08:03:38;0.00;99.90
20712;DHT22;10517;50.742;4.224;2023-03-01T08:06:06;0.10;99.90
20712;DHT22;10517;50.742;4.224;2023-03-01T08:08:32;0.20;99.90
20712;DHT22;10517;50.742;4.224;2023-03-01T08:11:03;0.30;99.90
20712;DHT22;10517;50.742;4.224;2023-03-01T08:13:30;0.40;99.90
20712;DHT22;10517;50.742;4.224;2023-03-01T08:16:08;0.50;99.90
20712;DHT22;10517;50.742;4.224;2023-03-01T08:18:34;0.50;99.90
20712;DHT22;10517;50.742;4.224;2023-03-01T08:21:11;0.50;99.90
20712;DHT22;10517;50.742;4.224;2023-03-01T08:23:40;0.50;99.90
20712;DHT22;10517;50.742;4.224;2023-03-01T08:26:24;0.50;99.90
20712;DHT22;10517;50.742;4.224;2023-03-01T08:28:50;0.50;99.90
20712;DHT22;10517;50.742;4.224;2023-03-01T08:31:24;0.60;99.90
20712;DHT22;10517;50.742;4.224;2023-03-01T08:33:52;0.70;99.90
20712;DHT22;10517;50.742;4.224;2023-03-01T08:36:22;0.70;99.90
20712;DHT22;10517;50.742;4.224;2023-03-01T08:38:48;0.90;99.90
20712;DHT22;10517;50.742;4.224;2023-03-01T08:41:14;1.10;99.90
20712;DHT22;10517;50.742;4.224;2023-03-01T08:43:40;1.10;99.90
20712;DHT22;10517;50.742;4.224;2023-03-01T08:46:05;1.10;99.90
20712;DHT22;10517;50.742;4.224;2023-03-01T08:48:31;1.20;99.90
20712;DHT22;10517;50.742;4.224;2023-03-01T08:50:57;1.30;99.90
20712;DHT22;10517;50.742;4.224;2023-03-01T08:53:31;1.30;99.90
20712;DHT22;10517;50.742;4.224;2023-03-01T08:56:00;1.40;99.90
20712;DHT22;10517;50.742;4.224;2023-03-01T08:58:26;1.50;99.90
20712;DHT22;10517;50.742;4.224;2023-03-01T09:00:51;1.50;99.90
20712;DHT22;10517;50.742;4.224;2023-03-01T09:03:17;1.60;99.90
20712;DHT22;10517;50.742;4.224;2023-03-01T09:05:43;1.60;99.90
20712;DHT22;10517;50.742;4.224;2023-03-01T09:08:11;1.70;99.90
20712;DHT22;10517;50.742;4.224;2023-03-01T09:10:38;1.80;99.90
20712;DHT22;10517;50.742;4.224;2023-03-01T09:13:04;1.90;99.90
20712;DHT22;10517;50.742;4.224;2023-03-01T09:15:30;2.00;99.90
20712;DHT22;10517;50.742;4.224;2023-03-01T09:17:55;2.10;99.90
20712;DHT22;10517;50.742;4.224;2023-03-01T09:20:21;2.30;99.90
20712;DHT22;10517;50.742;4.224;2023-03-01T09:22:47;2.40;99.90
20712;DHT22;10517;50.742;4.224;2023-03-01T09:25:12;2.40;99.90
20712;DHT22;10517;50.742;4.224;2023-03-01T09:27:38;2.50;99.90
20712;DHT22;10517;50.742;4.224;2023-03-01T09:30:04;2.50;99.90
20712;DHT22;10517;50.742;4.224;2023-03-01T09:32:31;2.50;99.90
20712;DHT22;10517;50.742;4.224;2023-03-01T09:34:56;2.50;99.90
20712;DHT22;10517;50.742;4.224;2023-03-01T09:37:35;2.60;99.90
20712;DHT22;10517;50.742;4.224;2023-03-01T09:40:02;2.60;99.90
20712;DHT22;10517;50.742;4.224;2023-03-01T09:42:34;2.70;99.90
20712;DHT22;10517;50.742;4.224;2023-03-01T09:45:06;2.80;99.90
20712;DHT22;10517;50.742;4.224;2023-03-01T09:47:37;2.80;99.90
20712;DHT22;10517;50.742;4.224;2023-03-01T09:50:14;2.80;99.90
20712;DHT22;10517;50.742;4.224;2023-03-01T09:52:50;2.80;99.90
20712;DHT22;10517;50.742;4.224;2023-03-01T09:55:26;2.80;99.90
20712;DHT22;10517;50.742;4.224;2023-03-01T10:00:47;2.80;99.90
20712;DHT22;10517;50.742;4.224;2023-03-01T10:03:34;3.00;99.90
20712;DHT22;10517;50.742;4.224;2023-03-01T10:06:14;3.10;99.90
20712;DHT22;10517;50.742;4.224;2023-03-01T10:08:47;3.20;99.90
20712;DHT22;10517;50.742;4.224;2023-03-01T10:11:24;3.20;99.90
20712;DHT22;10517;50.742;4.224;2023-03-01T10:14:30;3.30;99.90
20712;DHT22;10517;50.742;4.224;2023-03-01T10:22:15;3.90;99.90
20712;DHT22;10517;50.742;4.224;2023-03-01T10:24:42;3.90;99.90
20712;DHT22;10517;50.742;4.224;2023-03-01T10:27:19;3.70;99.90
20712;DHT22;10517;50.742;4.224;2023-03-01T10:29:59;3.80;99.90
20712;DHT22;10517;50.742;4.224;2023-03-01T10:32:26;3.80;99.90
20712;DHT22;10517;50.742;4.224;2023-03-01T10:34:52;3.80;99.90
20712;DHT22;10517;50.742;4.224;2023-03-01T10:37:19;3.80;99.90
20712;DHT22;10517;50.742;4.224;2023-03-01T10:39:57;3.80;99.90
20712;DHT22;10517;50.742;4.224;2023-03-01T10:42:28;3.80;99.90
20712;DHT22;10517;50.742;4.224;2023-03-01T10:44:54;3.90;99.90
20712;DHT22;10517;50.742;4.224;2023-03-01T10:47:25;4.20;99.90
20712;DHT22;10517;50.742;4.224;2023-03-01T10:49:58;4.60;99.90
20712;DHT22;10517;50.742;4.224;2023-03-01T10:52:28;4.60;99.90
20712;DHT22;10517;50.742;4.224;2023-03-01T10:55:01;4.20;99.90
20712;DHT22;10517;50.742;4.224;2023-03-01T10:57:39;4.10;99.90
20712;DHT22;10517;50.742;4.224;2023-03-01T11:00:24;4.10;99.90
20712;DHT22;10517;50.742;4.224;2023-03-01T11:05:25;4.10;99.90
20712;DHT22;10517;50.742;4.224;2023-03-01T11:07:56;4.20;99.90
20712;DHT22;10517;50.742;4.224;2023-03-01T11:10:27;4.40;99.90
20712;DHT22;10517;50.742;4.224;2023-03-01T11:12:53;4.30;99.90
20712;DHT22;10517;50.742;4.224;2023-03-01T11:15:27;4.20;99.90
20712;DHT22;10517;50.742;4.224;2023-03-01T11:17:54;4.20;99.90
20712;DHT22;10517;50.742;4.224;2023-03-01T11:22:56;4.30;99.90
20712;DHT22;10517;50.742;4.224;2023-03-01T11:25:31;4.40;99.90
20712;DHT22;10517;50.742;4.224;2023-03-01T11:27:59;4.40;99.90
20712;DHT22;10517;50.742;4.224;2023-03-01T11:30:34;4.70;99.90
20712;DHT22;10517;50.742;4.224;2023-03-01T11:38:34;5.40;99.90
20712;DHT22;10517;50.742;4.224;2023-03-01T11:41:19;5.80;99.90
20712;DHT22;10517;50.742;4.224;2023-03-01T11:49:05;5.30;99.90
20712;DHT22;10517;50.742;4.224;2023-03-01T12:17:44;6.10;99.90
20712;DHT22;10517;50.742;4.224;2023-03-01T12:26:23;6.10;99.90
20712;DHT22;10517;50.742;4.224;2023-03-01T12:45:54;6.40;99.90
20712;DHT22;10517;50.742;4.224;2023-03-01T12:51:23;6.60;99.90
20712;DHT22;10517;50.742;4.224;2023-03-01T12:53:51;6.50;99.90
20712;DHT22;10517;50.742;4.224;2023-03-01T12:56:23;6.50;99.90
20712;DHT22;10517;50.742;4.224;2023-03-01T13:04:47;6.50;99.90
20712;DHT22;10517;50.742;4.224;2023-03-01T13:07:25;6.60;99.90
20712;DHT22;10517;50.742;4.224;2023-03-01T13:10:21;6.50;99.90
20712;DHT22;10517;50.742;4.224;2023-03-01T13:15:35;6.70;99.90
20712;DHT22;10517;50.742;4.224;2023-03-01T13:31:10;8.10;99.90
20712;DHT22;10517;50.742;4.224;2023-03-01T13:36:10;9.30;99.90
20712;DHT22;10517;50.742;4.224;2023-03-01T13:47:00;9.80;99.90
20712;DHT22;10517;50.742;4.224;2023-03-01T13:49:33;9.90;99.90
20712;DHT22;10517;50.742;4.224;2023-03-01T13:52:02;10.20;99.90
20712;DHT22;10517;50.742;4.224;2023-03-01T13:54:32;10.60;99.90
20712;DHT22;10517;50.742;4.224;2023-03-01T13:56:59;10.70;99.90
20712;DHT22;10517;50.742;4.224;2023-03-01T13:59:26;10.20;99.90
20712;DHT22;10517;50.742;4.224;2023-03-01T14:01:57;10.30;99.90
20712;DHT22;10517;50.742;4.224;2023-03-01T14:04:28;11.10;99.90
20712;DHT22;10517;50.742;4.224;2023-03-01T14:07:19;11.10;99.90
20712;DHT22;10517;50.742;4.224;2023-03-01T14:09:48;11.00;99.90
20712;DHT22;10517;50.742;4.224;2023-03-01T14:15:06;10.30;99.90
20712;DHT22;10517;50.742;4.224;2023-03-01T14:20:21;10.60;99.90
20712;DHT22;10517;50.742;4.224;2023-03-01T14:22:49;10.60;99.90
20712;DHT22;10517;50.742;4.224;2023-03-01T14:25:25;10.30;99.90
20712;DHT22;10517;50.742;4.224;2023-03-01T14:28:17;10.50;99.90
20712;DHT22;10517;50.742;4.224;2023-03-01T14:30:46;10.40;99.90
20712;DHT22;10517;50.742;4.224;2023-03-01T14:36:01;10.70;99.90
20712;DHT22;10517;50.742;4.224;2023-03-01T14:38:38;10.80;99.90
20712;DHT22;10517;50.742;4.224;2023-03-01T14:41:10;11.10;99.90
20712;DHT22;10517;50.742;4.224;2023-03-01T14:43:43;11.30;99.90
20712;DHT22;10517;50.742;4.224;2023-03-01T14:46:36;11.50;99.90
20712;DHT22;10517;50.742;4.224;2023-03-01T14:49:15;10.80;99.90
20712;DHT22;10517;50.742;4.224;2023-03-01T14:51:48;10.70;99.90
20712;DHT22;10517;50.742;4.224;2023-03-01T14:54:59;11.00;99.90
20712;DHT22;10517;50.742;4.224;2023-03-01T14:57:25;11.50;99.90
20712;DHT22;10517;50.742;4.224;2023-03-01T14:59:55;11.50;99.90
20712;DHT22;10517;50.742;4.224;2023-03-01T15:02:24;11.00;99.90
20712;DHT22;10517;50.742;4.224;2023-03-01T15:04:52;10.70;99.90
20712;DHT22;10517;50.742;4.224;2023-03-01T15:07:19;10.60;99.90
20712;DHT22;10517;50.742;4.224;2023-03-01T15:09:45;10.40;99.90
20712;DHT22;10517;50.742;4.224;2023-03-01T15:14:54;11.00;99.90
20712;DHT22;10517;50.742;4.224;2023-03-01T15:17:35;11.50;99.90
20712;DHT22;10517;50.742;4.224;2023-03-01T15:20:03;11.20;99.90
20712;DHT22;10517;50.742;4.224;2023-03-01T15:22:29;11.60;99.90
20712;DHT22;10517;50.742;4.224;2023-03-01T15:24:55;11.70;99.90
20712;DHT22;10517;50.742;4.224;2023-03-01T15:27:23;12.00;99.90
20712;DHT22;10517;50.742;4.224;2023-03-01T15:29:59;12.00;99.90
20712;DHT22;10517;50.742;4.224;2023-03-01T15:32:32;12.20;99.90
20712;DHT22;10517;50.742;4.224;2023-03-01T15:34:59;12.30;99.90
20712;DHT22;10517;50.742;4.224;2023-03-01T15:37:45;12.20;99.90
20712;DHT22;10517;50.742;4.224;2023-03-01T15:40:23;11.40;99.90
20712;DHT22;10517;50.742;4.224;2023-03-01T15:42:59;11.00;99.90
20712;DHT22;10517;50.742;4.224;2023-03-01T15:45:27;10.40;99.90
20712;DHT22;10517;50.742;4.224;2023-03-01T15:48:04;9.90;99.90
20712;DHT22;10517;50.742;4.224;2023-03-01T15:50:32;9.80;99.90
20712;DHT22;10517;50.742;4.224;2023-03-01T15:52:59;9.50;99.90
20712;DHT22;10517;50.742;4.224;2023-03-01T15:55:30;9.10;99.90
20712;DHT22;10517;50.742;4.224;2023-03-01T15:58:24;8.80;99.90
20712;DHT22;10517;50.742;4.224;2023-03-01T16:00:51;8.30;99.90
20712;DHT22;10517;50.742;4.224;2023-03-01T16:03:21;8.00;99.90
20712;DHT22;10517;50.742;4.224;2023-03-01T16:05:48;7.70;99.90
20712;DHT22;10517;50.742;4.224;2023-03-01T16:08:14;7.60;99.90
20712;DHT22;10517;50.742;4.224;2023-03-01T16:10:40;7.50;99.90
20712;DHT22;10517;50.742;4.224;2023-03-01T16:13:06;7.40;99.90
20712;DHT22;10517;50.742;4.224;2023-03-01T16:15:33;7.20;99.90
20712;DHT22;10517;50.742;4.224;2023-03-01T16:18:03;7.20;99.90
20712;DHT22;10517;50.742;4.224;2023-03-01T16:20:30;7.30;99.90
20712;DHT22;10517;50.742;4.224;2023-03-01T16:23:01;7.20;99.90
20712;DHT22;10517;50.742;4.224;2023-03-01T16:25:28;7.10;99.90
20712;DHT22;10517;50.742;4.224;2023-03-01T16:27:54;7.10;99.90
20712;DHT22;10517;50.742;4.224;2023-03-01T16:30:22;7.00;99.90
20712;DHT22;10517;50.742;4.224;2023-03-01T16:32:48;6.90;99.90
20712;DHT22;10517;50.742;4.224;2023-03-01T16:35:17;6.80;99.90
20712;DHT22;10517;50.742;4.224;2023-03-01T16:37:43;6.80;99.90
20712;DHT22;10517;50.742;4.224;2023-03-01T16:40:20;6.80;99.90
20712;DHT22;10517;50.742;4.224;2023-03-01T16:42:50;6.70;99.90
20712;DHT22;10517;50.742;4.224;2023-03-01T16:45:17;6.70;99.90
20712;DHT22;10517;50.742;4.224;2023-03-01T16:47:43;6.70;99.90
20712;DHT22;10517;50.742;4.224;2023-03-01T16:50:09;6.60;99.90
20712;DHT22;10517;50.742;4.224;2023-03-01T16:52:35;6.60;99.90
20712;DHT22;10517;50.742;4.224;2023-03-01T16:55:03;6.60;99.90
20712;DHT22;10517;50.742;4.224;2023-03-01T16:57:29;6.50;99.90
20712;DHT22;10517;50.742;4.224;2023-03-01T16:59:55;6.50;99.90
20712;DHT22;10517;50.742;4.224;2023-03-01T17:02:21;6.50;99.90
20712;DHT22;10517;50.742;4.224;2023-03-01T17:04:56;6.40;99.90
20712;DHT22;10517;50.742;4.224;2023-03-01T17:07:22;6.40;99.90
20712;DHT22;10517;50.742;4.224;2023-03-01T17:09:47;6.30;99.90
20712;DHT22;10517;50.742;4.224;2023-03-01T17:12:14;6.30;99.90
20712;DHT22;10517;50.742;4.224;2023-03-01T17:14:40;6.20;99.90
20712;DHT22;10517;50.742;4.224;2023-03-01T17:17:10;6.20;99.90
20712;DHT22;10517;50.742;4.224;2023-03-01T17:19:36;6.10;99.90
20712;DHT22;10517;50.742;4.224;2023-03-01T17:22:06;6.10;99.90
20712;DHT22;10517;50.742;4.224;2023-03-01T17:24:33;6.00;99.90
20712;DHT22;10517;50.742;4.224;2023-03-01T17:26:59;5.90;99.90
20712;DHT22;10517;50.742;4.224;2023-03-01T17:29:25;5.90;99.90
20712;DHT22;10517;50.742;4.224;2023-03-01T17:31:50;5.90;99.90
20712;DHT22;10517;50.742;4.224;2023-03-01T17:34:16;5.90;99.90
20712;DHT22;10517;50.742;4.224;2023-03-01T17:36:41;5.90;99.90
20712;DHT22;10517;50.742;4.224;2023-03-01T17:39:09;5.80;99.90
20712;DHT22;10517;50.742;4.224;2023-03-01T17:41:35;5.80;99.90
20712;DHT22;10517;50.742;4.224;2023-03-01T17:44:01;5.70;99.90
20712;DHT22;10517;50.742;4.224;2023-03-01T17:46:26;5.80;99.90
20712;DHT22;10517;50.742;4.224;2023-03-01T17:48:52;5.70;99.90
20712;DHT22;10517;50.742;4.224;2023-03-01T17:51:17;5.70;99.90
20712;DHT22;10517;50.742;4.224;2023-03-01T17:53:43;5.70;99.90
20712;DHT22;10517;50.742;4.224;2023-03-01T17:56:09;5.60;99.90
20712;DHT22;10517;50.742;4.224;2023-03-01T17:58:34;5.60;99.90
20712;DHT22;10517;50.742;4.224;2023-03-01T18:01:15;5.50;99.90
20712;DHT22;10517;50.742;4.224;2023-03-01T18:03:41;5.50;99.90
20712;DHT22;10517;50.742;4.224;2023-03-01T18:06:14;5.50;99.90